1966 EILEEN (1966235N16249)


On this page: IBTrACS data - Map and Plots - Positions - Intensities - Original source data

Summary

Start Aug 23
End Aug 29
Basin EP
LMI 75 kt
Sources hurdat_epa
jtwc_ep
td9636
atcf
ds824_ep
In WMO? Yes
Previous storm 1966 BETTY (WP)
Previous in basin 1966 DOLORES (EP)
Concurrent storms 1966 DOLORES (EP)
1966 WINNIE (WP)
1966 FAITH (NA)
1966 BETTY (WP)
1966 EILEEN (EP)
1966 ALICE (WP)
1966 CORA (WP)
Next in basin Missing
Next storm 1966 ALICE (WP)

top of page IBTrACS Data: File Access

No storm imagery available

top of page Plots:

Map of storm track will not appear if FTP is down
Time series of cyclone Maximum Sustained Wind will not appear if FTP is down
Time series of cyclone Minimum Central Pressure will not appear if FTP is down

top of page Track Data:Position

hurdat_epa jtwc_ep td9636 atcf ds824_ep
Date Lat Lon Lat Lon Lat Lon Lat Lon Lat Lon
1966-08-23 00:00:00 16.2 -111.2 16.2 -111.2 16.2 -111.2 16.2 -111.2 16.2 -111.2
1966-08-23 06:00:00 16.7 -112.0 16.7 -112.0 16.7 -112.0 16.7 -112.0 16.7 -112.0
1966-08-23 12:00:00 17.1 -112.9 17.1 -112.9 17.1 -112.9 17.1 -112.9 17.1 -112.9
1966-08-23 18:00:00 17.5 -113.8 17.5 -113.8 17.5 -113.8 17.5 -113.8 17.5 -113.8
1966-08-24 00:00:00 17.9 -114.8 17.9 -114.8 17.9 -114.8 17.9 -114.8 17.9 -114.8
1966-08-24 06:00:00 18.2 -115.7 18.2 -115.7 18.2 -115.7 18.2 -115.7 18.2 -115.7
1966-08-24 12:00:00 18.5 -116.6 18.5 -116.6 18.5 -116.6 18.5 -116.6 18.5 -116.6
1966-08-24 18:00:00 18.8 -117.3 18.8 -117.3 18.8 -117.3 18.8 -117.3 18.8 -117.3
1966-08-25 00:00:00 19.0 -118.0 19.0 -118.0 19.0 -118.0 19.0 -118.0 19.0 -118.0
1966-08-25 06:00:00 19.3 -119.1 19.3 -119.1 19.3 -119.1 19.3 -119.1 19.3 -119.1
1966-08-25 12:00:00 19.5 -120.3 19.5 -120.3 19.5 -120.3 19.5 -120.3 19.5 -120.3
1966-08-25 18:00:00 19.7 -121.2 19.7 -121.2 19.7 -121.3 19.7 -121.2 19.7 -121.2
1966-08-26 00:00:00 19.9 -122.2 19.9 -122.2 19.9 -122.2 19.9 -122.2 19.9 -122.2
1966-08-26 06:00:00 20.1 -123.1 20.1 -123.1 20.1 -123.2 20.1 -123.1 20.1 -123.1
1966-08-26 12:00:00 20.3 -124.1 20.3 -124.1 20.3 -124.1 20.3 -124.1 20.3 -124.1
1966-08-26 18:00:00 20.5 -124.8 20.5 -124.8 20.5 -124.7 20.5 -124.8 20.5 -124.8
1966-08-27 00:00:00 20.7 -125.4 20.7 -125.4 20.7 -125.4 20.7 -125.4 20.7 -125.4
1966-08-27 06:00:00 21.0 -126.4 21.0 -126.4 20.9 -126.4 21.0 -126.4 21.0 -126.4
1966-08-27 12:00:00 21.2 -127.4 21.2 -127.4 21.2 -127.4 21.2 -127.4 21.2 -127.4
1966-08-27 18:00:00 21.6 -128.2 21.6 -128.2 21.5 -128.3 21.6 -128.2 21.6 -128.2
1966-08-28 00:00:00 22.1 -129.0 22.1 -129.0 22.1 -129.0 22.1 -129.0 22.1 -129.0
1966-08-28 06:00:00 23.0 -129.6 23.0 -129.6 23.0 -129.6 23.0 -129.6 23.0 -129.6
1966-08-28 12:00:00 24.0 -129.8 24.0 -129.8 24.0 -129.8 24.0 -129.8 24.0 -129.8
1966-08-28 18:00:00 24.9 -129.6 24.9 -129.6 24.9 -129.5 24.9 -129.6 24.9 -129.6
1966-08-29 00:00:00 25.6 -129.0 25.6 -129.0 25.6 -129.0 25.6 -129.0 25.6 -129.0

top of pageTrack Data:Intensity

hurdat_epa jtwc_ep td9636 atcf ds824_ep
Date Wind Pres Wind Pres Wind Pres Wind Pres Wind Pres
1966-08-23 00:00:00 25. 25. 25. 25.
1966-08-23 06:00:00 25. 25. 25. 25.
1966-08-23 12:00:00 25. 25. 25. 25.
1966-08-23 18:00:00 25. 25. 25. 25.
1966-08-24 00:00:00 25. 25. 25. 25.
1966-08-24 06:00:00 45. 45. 45. 45.
1966-08-24 12:00:00 45. 45. 45. 45.
1966-08-24 18:00:00 45. 45. 45. 45.
1966-08-25 00:00:00 45. 45. 45. 45.
1966-08-25 06:00:00 45. 45. 45. 45.
1966-08-25 12:00:00 45. 45. 45. 45.
1966-08-25 18:00:00 45. 45. 45. 45.
1966-08-26 00:00:00 45. 45. 45. 45.
1966-08-26 06:00:00 75. 75. 75. 75.
1966-08-26 12:00:00 75. 75. 75. 75.
1966-08-26 18:00:00 75. 75. 75. 75.
1966-08-27 00:00:00 75. 75. 75. 75.
1966-08-27 06:00:00 75. 75. 75. 75.
1966-08-27 12:00:00 75. 75. 75. 75.
1966-08-27 18:00:00 45. 45. 45. 45.
1966-08-28 00:00:00 45. 45. 45. 45.
1966-08-28 06:00:00 45. 45. 45. 45.
1966-08-28 12:00:00 45. 45. 45. 45.
1966-08-28 18:00:00 45. 45. 45. 45.
1966-08-29 00:00:00 25. 25. 25. 25.

top of page Links to source data

Source Source file Format
hurdat_epa tracks1949to2011_epa.html:156:EILEEN HURDAT
jtwc_ep bep051966.txt ATCF
td9636 cons_worldwide_trop_cyclone_18710101-19891231-002:Line=1414 TD 9636
atcf bep051966.dat ATCF
ds824_ep e_npac.dat:156:EILEEN HURDAT